sensor_id;sensor_type;location;lat;lon;timestamp;P1;durP1;ratioP1;P2;durP2;ratioP2
78686;SDS011;68002;52.310;6.990;2023-04-23T00:00:17;44.20;;;15.75;;
78686;SDS011;68002;52.310;6.990;2023-04-23T00:02:43;40.13;;;14.57;;
78686;SDS011;68002;52.310;6.990;2023-04-23T00:05:09;39.42;;;14.52;;
78686;SDS011;68002;52.310;6.990;2023-04-23T00:07:36;52.58;;;20.38;;
78686;SDS011;68002;52.310;6.990;2023-04-23T00:10:02;39.63;;;14.35;;
78686;SDS011;68002;52.310;6.990;2023-04-23T00:12:28;35.53;;;14.63;;
78686;SDS011;68002;52.310;6.990;2023-04-23T00:14:54;52.75;;;19.20;;
78686;SDS011;68002;52.310;6.990;2023-04-23T00:17:19;47.33;;;18.05;;
78686;SDS011;68002;52.310;6.990;2023-04-23T00:19:44;49.23;;;18.83;;
78686;SDS011;68002;52.310;6.990;2023-04-23T00:22:09;47.53;;;18.77;;
78686;SDS011;68002;52.310;6.990;2023-04-23T00:24:35;48.60;;;19.17;;
78686;SDS011;68002;52.310;6.990;2023-04-23T00:27:00;39.27;;;14.43;;
78686;SDS011;68002;52.310;6.990;2023-04-23T00:29:26;51.20;;;20.10;;
78686;SDS011;68002;52.310;6.990;2023-04-23T00:31:51;44.40;;;17.03;;
78686;SDS011;68002;52.310;6.990;2023-04-23T00:34:16;56.10;;;21.57;;
78686;SDS011;68002;52.310;6.990;2023-04-23T00:36:41;52.20;;;19.23;;
78686;SDS011;68002;52.310;6.990;2023-04-23T00:39:07;59.07;;;20.83;;
78686;SDS011;68002;52.310;6.990;2023-04-23T00:41:32;47.10;;;17.90;;
78686;SDS011;68002;52.310;6.990;2023-04-23T00:43:58;47.92;;;17.25;;
78686;SDS011;68002;52.310;6.990;2023-04-23T00:46:24;51.92;;;20.23;;
78686;SDS011;68002;52.310;6.990;2023-04-23T00:48:50;45.55;;;16.98;;
78686;SDS011;68002;52.310;6.990;2023-04-23T00:51:16;55.85;;;19.33;;
78686;SDS011;68002;52.310;6.990;2023-04-23T00:53:41;56.57;;;17.83;;
78686;SDS011;68002;52.310;6.990;2023-04-23T00:56:07;55.30;;;18.83;;
78686;SDS011;68002;52.310;6.990;2023-04-23T00:58:33;57.78;;;20.73;;
78686;SDS011;68002;52.310;6.990;2023-04-23T01:00:58;56.95;;;19.27;;
78686;SDS011;68002;52.310;6.990;2023-04-23T01:03:25;56.33;;;22.98;;
78686;SDS011;68002;52.310;6.990;2023-04-23T01:05:50;58.28;;;21.33;;
78686;SDS011;68002;52.310;6.990;2023-04-23T01:08:16;59.88;;;22.50;;
78686;SDS011;68002;52.310;6.990;2023-04-23T01:10:42;62.38;;;22.92;;
78686;SDS011;68002;52.310;6.990;2023-04-23T01:13:09;61.50;;;23.02;;
78686;SDS011;68002;52.310;6.990;2023-04-23T01:15:35;70.20;;;26.20;;
78686;SDS011;68002;52.310;6.990;2023-04-23T01:18:00;54.07;;;19.97;;
78686;SDS011;68002;52.310;6.990;2023-04-23T01:20:26;79.73;;;30.77;;
78686;SDS011;68002;52.310;6.990;2023-04-23T01:22:51;75.40;;;26.93;;
78686;SDS011;68002;52.310;6.990;2023-04-23T01:25:16;73.93;;;25.60;;
78686;SDS011;68002;52.310;6.990;2023-04-23T01:27:41;74.83;;;28.70;;
78686;SDS011;68002;52.310;6.990;2023-04-23T01:30:07;75.78;;;27.98;;
78686;SDS011;68002;52.310;6.990;2023-04-23T01:32:33;73.03;;;29.45;;
78686;SDS011;68002;52.310;6.990;2023-04-23T01:34:59;69.15;;;25.88;;
78686;SDS011;68002;52.310;6.990;2023-04-23T01:37:25;71.38;;;26.30;;
78686;SDS011;68002;52.310;6.990;2023-04-23T01:39:52;65.03;;;22.77;;
78686;SDS011;68002;52.310;6.990;2023-04-23T01:42:17;71.23;;;25.10;;
78686;SDS011;68002;52.310;6.990;2023-04-23T01:44:42;67.10;;;23.20;;
78686;SDS011;68002;52.310;6.990;2023-04-23T01:47:08;50.42;;;17.95;;
78686;SDS011;68002;52.310;6.990;2023-04-23T01:49:33;56.10;;;20.90;;
78686;SDS011;68002;52.310;6.990;2023-04-23T01:51:58;53.63;;;18.33;;
78686;SDS011;68002;52.310;6.990;2023-04-23T01:54:23;59.00;;;23.07;;
78686;SDS011;68002;52.310;6.990;2023-04-23T01:56:49;65.67;;;24.33;;
78686;SDS011;68002;52.310;6.990;2023-04-23T01:59:14;54.03;;;20.57;;
78686;SDS011;68002;52.310;6.990;2023-04-23T02:01:40;57.97;;;19.52;;
78686;SDS011;68002;52.310;6.990;2023-04-23T02:04:06;56.25;;;18.98;;
78686;SDS011;68002;52.310;6.990;2023-04-23T02:06:31;70.60;;;24.63;;
78686;SDS011;68002;52.310;6.990;2023-04-23T02:08:56;63.33;;;21.50;;
78686;SDS011;68002;52.310;6.990;2023-04-23T02:11:21;59.37;;;21.10;;
78686;SDS011;68002;52.310;6.990;2023-04-23T02:13:47;65.20;;;22.53;;
78686;SDS011;68002;52.310;6.990;2023-04-23T02:16:12;67.37;;;22.97;;
78686;SDS011;68002;52.310;6.990;2023-04-23T02:18:37;56.77;;;17.57;;
78686;SDS011;68002;52.310;6.990;2023-04-23T02:21:02;55.60;;;18.23;;
78686;SDS011;68002;52.310;6.990;2023-04-23T02:23:28;58.57;;;18.63;;
78686;SDS011;68002;52.310;6.990;2023-04-23T02:25:53;61.23;;;19.33;;
78686;SDS011;68002;52.310;6.990;2023-04-23T02:28:18;59.47;;;19.93;;
78686;SDS011;68002;52.310;6.990;2023-04-23T02:30:43;74.23;;;22.30;;
78686;SDS011;68002;52.310;6.990;2023-04-23T02:33:08;63.23;;;19.80;;
78686;SDS011;68002;52.310;6.990;2023-04-23T02:35:34;52.97;;;18.47;;
78686;SDS011;68002;52.310;6.990;2023-04-23T02:37:59;47.83;;;15.37;;
78686;SDS011;68002;52.310;6.990;2023-04-23T02:40:24;51.87;;;16.53;;
78686;SDS011;68002;52.310;6.990;2023-04-23T02:42:49;50.23;;;17.70;;
78686;SDS011;68002;52.310;6.990;2023-04-23T02:45:14;47.63;;;15.47;;
78686;SDS011;68002;52.310;6.990;2023-04-23T02:47:40;47.53;;;15.07;;
78686;SDS011;68002;52.310;6.990;2023-04-23T02:50:05;56.70;;;20.23;;
78686;SDS011;68002;52.310;6.990;2023-04-23T02:52:31;56.20;;;18.00;;
78686;SDS011;68002;52.310;6.990;2023-04-23T02:54:58;49.38;;;15.55;;
78686;SDS011;68002;52.310;6.990;2023-04-23T02:57:26;45.55;;;14.32;;
78686;SDS011;68002;52.310;6.990;2023-04-23T02:59:52;48.50;;;15.73;;
78686;SDS011;68002;52.310;6.990;2023-04-23T03:02:18;45.05;;;14.90;;
78686;SDS011;68002;52.310;6.990;2023-04-23T03:04:43;38.07;;;12.83;;
78686;SDS011;68002;52.310;6.990;2023-04-23T03:07:08;45.27;;;13.87;;
78686;SDS011;68002;52.310;6.990;2023-04-23T03:09:34;62.17;;;17.17;;
78686;SDS011;68002;52.310;6.990;2023-04-23T03:11:59;47.93;;;14.50;;
78686;SDS011;68002;52.310;6.990;2023-04-23T03:14:24;59.37;;;16.27;;
78686;SDS011;68002;52.310;6.990;2023-04-23T03:16:49;66.87;;;15.20;;
78686;SDS011;68002;52.310;6.990;2023-04-23T03:19:15;44.80;;;14.20;;
78686;SDS011;68002;52.310;6.990;2023-04-23T03:21:40;40.77;;;14.27;;
78686;SDS011;68002;52.310;6.990;2023-04-23T03:24:05;108.07;;;16.40;;
78686;SDS011;68002;52.310;6.990;2023-04-23T03:26:30;34.80;;;10.83;;
78686;SDS011;68002;52.310;6.990;2023-04-23T03:28:56;39.17;;;13.07;;
78686;SDS011;68002;52.310;6.990;2023-04-23T03:31:21;38.97;;;12.07;;
78686;SDS011;68002;52.310;6.990;2023-04-23T03:33:46;48.80;;;14.97;;
78686;SDS011;68002;52.310;6.990;2023-04-23T03:36:11;57.80;;;14.87;;
78686;SDS011;68002;52.310;6.990;2023-04-23T03:38:36;46.80;;;14.10;;
78686;SDS011;68002;52.310;6.990;2023-04-23T03:41:02;39.73;;;12.40;;
78686;SDS011;68002;52.310;6.990;2023-04-23T03:43:27;39.47;;;12.80;;
78686;SDS011;68002;52.310;6.990;2023-04-23T03:45:52;40.17;;;13.30;;
78686;SDS011;68002;52.310;6.990;2023-04-23T03:48:17;39.33;;;12.20;;
78686;SDS011;68002;52.310;6.990;2023-04-23T03:50:42;54.17;;;14.90;;
78686;SDS011;68002;52.310;6.990;2023-04-23T03:53:08;44.57;;;13.87;;
78686;SDS011;68002;52.310;6.990;2023-04-23T03:55:33;41.67;;;13.13;;
78686;SDS011;68002;52.310;6.990;2023-04-23T03:57:58;50.70;;;15.03;;
78686;SDS011;68002;52.310;6.990;2023-04-23T04:00:23;44.37;;;13.97;;
78686;SDS011;68002;52.310;6.990;2023-04-23T04:02:49;39.43;;;13.03;;
78686;SDS011;68002;52.310;6.990;2023-04-23T04:05:14;41.80;;;13.80;;
78686;SDS011;68002;52.310;6.990;2023-04-23T04:07:39;48.70;;;13.30;;
78686;SDS011;68002;52.310;6.990;2023-04-23T04:10:05;55.80;;;16.67;;
78686;SDS011;68002;52.310;6.990;2023-04-23T04:12:31;54.00;;;16.60;;
78686;SDS011;68002;52.310;6.990;2023-04-23T04:14:56;48.33;;;15.77;;
78686;SDS011;68002;52.310;6.990;2023-04-23T04:17:21;48.43;;;14.20;;
78686;SDS011;68002;52.310;6.990;2023-04-23T04:19:46;44.07;;;13.83;;
78686;SDS011;68002;52.310;6.990;2023-04-23T04:22:12;38.33;;;15.40;;
78686;SDS011;68002;52.310;6.990;2023-04-23T04:24:37;44.70;;;13.63;;
78686;SDS011;68002;52.310;6.990;2023-04-23T04:27:02;57.83;;;18.87;;
78686;SDS011;68002;52.310;6.990;2023-04-23T04:29:27;75.32;;;20.95;;
78686;SDS011;68002;52.310;6.990;2023-04-23T04:31:53;71.33;;;21.40;;
78686;SDS011;68002;52.310;6.990;2023-04-23T04:34:19;65.45;;;19.27;;
78686;SDS011;68002;52.310;6.990;2023-04-23T04:36:44;59.97;;;15.98;;
78686;SDS011;68002;52.310;6.990;2023-04-23T04:39:09;53.63;;;16.48;;
78686;SDS011;68002;52.310;6.990;2023-04-23T04:41:35;66.30;;;18.77;;
78686;SDS011;68002;52.310;6.990;2023-04-23T04:44:00;74.93;;;19.50;;
78686;SDS011;68002;52.310;6.990;2023-04-23T04:46:26;84.90;;;24.93;;
78686;SDS011;68002;52.310;6.990;2023-04-23T04:48:51;71.03;;;20.47;;
78686;SDS011;68002;52.310;6.990;2023-04-23T04:51:16;80.40;;;25.03;;
78686;SDS011;68002;52.310;6.990;2023-04-23T04:53:41;58.67;;;17.47;;
78686;SDS011;68002;52.310;6.990;2023-04-23T04:56:07;58.20;;;18.33;;
78686;SDS011;68002;52.310;6.990;2023-04-23T04:58:33;67.10;;;20.65;;
78686;SDS011;68002;52.310;6.990;2023-04-23T05:00:58;66.60;;;19.42;;
78686;SDS011;68002;52.310;6.990;2023-04-23T05:03:24;75.68;;;22.08;;
78686;SDS011;68002;52.310;6.990;2023-04-23T05:05:49;60.80;;;17.88;;
78686;SDS011;68002;52.310;6.990;2023-04-23T05:08:15;81.33;;;24.23;;
78686;SDS011;68002;52.310;6.990;2023-04-23T05:10:40;89.57;;;25.98;;
78686;SDS011;68002;52.310;6.990;2023-04-23T05:13:06;77.40;;;23.38;;
78686;SDS011;68002;52.310;6.990;2023-04-23T05:15:31;82.87;;;20.67;;
78686;SDS011;68002;52.310;6.990;2023-04-23T05:17:56;88.30;;;27.50;;
78686;SDS011;68002;52.310;6.990;2023-04-23T05:20:21;79.53;;;23.13;;
78686;SDS011;68002;52.310;6.990;2023-04-23T05:22:47;76.45;;;23.30;;
78686;SDS011;68002;52.310;6.990;2023-04-23T05:25:12;77.38;;;22.90;;
78686;SDS011;68002;52.310;6.990;2023-04-23T05:27:38;59.65;;;19.10;;
78686;SDS011;68002;52.310;6.990;2023-04-23T05:30:04;56.92;;;18.27;;
78686;SDS011;68002;52.310;6.990;2023-04-23T05:32:32;83.90;;;23.48;;
78686;SDS011;68002;52.310;6.990;2023-04-23T05:34:57;66.17;;;20.73;;
78686;SDS011;68002;52.310;6.990;2023-04-23T05:37:22;57.60;;;19.23;;
78686;SDS011;68002;52.310;6.990;2023-04-23T05:39:47;49.80;;;18.50;;
78686;SDS011;68002;52.310;6.990;2023-04-23T05:42:13;47.63;;;20.00;;
78686;SDS011;68002;52.310;6.990;2023-04-23T05:44:38;46.97;;;18.63;;
78686;SDS011;68002;52.310;6.990;2023-04-23T05:47:03;42.43;;;17.93;;
78686;SDS011;68002;52.310;6.990;2023-04-23T05:49:28;36.53;;;15.03;;
78686;SDS011;68002;52.310;6.990;2023-04-23T05:51:54;35.10;;;16.77;;
78686;SDS011;68002;52.310;6.990;2023-04-23T05:54:19;41.38;;;17.27;;
78686;SDS011;68002;52.310;6.990;2023-04-23T05:56:44;38.93;;;17.07;;
78686;SDS011;68002;52.310;6.990;2023-04-23T05:59:10;39.73;;;17.40;;
78686;SDS011;68002;52.310;6.990;2023-04-23T06:01:35;42.70;;;18.73;;
78686;SDS011;68002;52.310;6.990;2023-04-23T06:04:01;34.90;;;16.23;;
78686;SDS011;68002;52.310;6.990;2023-04-23T06:06:26;38.43;;;16.53;;
78686;SDS011;68002;52.310;6.990;2023-04-23T06:08:51;42.47;;;19.87;;
78686;SDS011;68002;52.310;6.990;2023-04-23T06:11:16;36.90;;;16.33;;
78686;SDS011;68002;52.310;6.990;2023-04-23T06:13:41;40.30;;;17.97;;
78686;SDS011;68002;52.310;6.990;2023-04-23T06:16:07;39.10;;;17.20;;
78686;SDS011;68002;52.310;6.990;2023-04-23T06:18:32;41.73;;;18.70;;
78686;SDS011;68002;52.310;6.990;2023-04-23T06:20:57;38.83;;;18.80;;
78686;SDS011;68002;52.310;6.990;2023-04-23T06:23:22;35.50;;;16.47;;
78686;SDS011;68002;52.310;6.990;2023-04-23T06:25:48;35.30;;;16.97;;
78686;SDS011;68002;52.310;6.990;2023-04-23T06:28:13;34.13;;;17.80;;
78686;SDS011;68002;52.310;6.990;2023-04-23T06:30:38;32.13;;;15.87;;
78686;SDS011;68002;52.310;6.990;2023-04-23T06:33:03;34.50;;;17.23;;
78686;SDS011;68002;52.310;6.990;2023-04-23T06:35:29;33.93;;;17.27;;
78686;SDS011;68002;52.310;6.990;2023-04-23T06:37:54;32.13;;;16.40;;
78686;SDS011;68002;52.310;6.990;2023-04-23T06:40:19;31.87;;;15.67;;
78686;SDS011;68002;52.310;6.990;2023-04-23T06:42:44;34.47;;;17.93;;
78686;SDS011;68002;52.310;6.990;2023-04-23T06:45:10;29.50;;;15.47;;
78686;SDS011;68002;52.310;6.990;2023-04-23T06:47:35;31.33;;;15.20;;
78686;SDS011;68002;52.310;6.990;2023-04-23T06:50:00;32.27;;;16.13;;
78686;SDS011;68002;52.310;6.990;2023-04-23T06:52:26;32.73;;;16.57;;
78686;SDS011;68002;52.310;6.990;2023-04-23T06:54:51;30.65;;;16.23;;
78686;SDS011;68002;52.310;6.990;2023-04-23T06:57:16;29.77;;;14.50;;
78686;SDS011;68002;52.310;6.990;2023-04-23T06:59:41;28.93;;;14.07;;
78686;SDS011;68002;52.310;6.990;2023-04-23T07:02:07;27.93;;;14.80;;
78686;SDS011;68002;52.310;6.990;2023-04-23T07:04:32;28.40;;;14.10;;
78686;SDS011;68002;52.310;6.990;2023-04-23T07:06:57;31.40;;;15.63;;
78686;SDS011;68002;52.310;6.990;2023-04-23T07:09:22;31.00;;;15.07;;
78686;SDS011;68002;52.310;6.990;2023-04-23T07:11:48;23.25;;;12.48;;
78686;SDS011;68002;52.310;6.990;2023-04-23T07:14:13;25.65;;;12.73;;
78686;SDS011;68002;52.310;6.990;2023-04-23T07:16:38;26.67;;;13.27;;
78686;SDS011;68002;52.310;6.990;2023-04-23T07:19:04;23.90;;;13.50;;
78686;SDS011;68002;52.310;6.990;2023-04-23T07:21:29;24.37;;;14.00;;
78686;SDS011;68002;52.310;6.990;2023-04-23T07:23:55;24.83;;;12.13;;
78686;SDS011;68002;52.310;6.990;2023-04-23T07:26:21;23.27;;;11.23;;
78686;SDS011;68002;52.310;6.990;2023-04-23T07:28:46;21.27;;;12.57;;
78686;SDS011;68002;52.310;6.990;2023-04-23T07:31:11;18.43;;;10.43;;
78686;SDS011;68002;52.310;6.990;2023-04-23T07:33:37;15.67;;;9.57;;
78686;SDS011;68002;52.310;6.990;2023-04-23T07:36:02;19.77;;;10.63;;
78686;SDS011;68002;52.310;6.990;2023-04-23T07:38:27;18.40;;;11.00;;
78686;SDS011;68002;52.310;6.990;2023-04-23T07:40:52;16.53;;;9.60;;
78686;SDS011;68002;52.310;6.990;2023-04-23T07:43:18;15.43;;;10.70;;
78686;SDS011;68002;52.310;6.990;2023-04-23T07:45:43;16.67;;;9.80;;
78686;SDS011;68002;52.310;6.990;2023-04-23T07:48:08;13.70;;;8.77;;
78686;SDS011;68002;52.310;6.990;2023-04-23T07:50:33;16.03;;;10.50;;
78686;SDS011;68002;52.310;6.990;2023-04-23T07:52:59;16.03;;;9.93;;
78686;SDS011;68002;52.310;6.990;2023-04-23T07:55:24;16.47;;;10.90;;
78686;SDS011;68002;52.310;6.990;2023-04-23T07:57:49;16.97;;;10.20;;
78686;SDS011;68002;52.310;6.990;2023-04-23T08:00:14;16.63;;;10.93;;
78686;SDS011;68002;52.310;6.990;2023-04-23T08:02:40;14.70;;;9.52;;
78686;SDS011;68002;52.310;6.990;2023-04-23T08:05:05;16.77;;;10.47;;
78686;SDS011;68002;52.310;6.990;2023-04-23T08:07:30;14.65;;;9.68;;
78686;SDS011;68002;52.310;6.990;2023-04-23T08:09:56;14.85;;;9.50;;
78686;SDS011;68002;52.310;6.990;2023-04-23T08:12:21;13.43;;;8.93;;
78686;SDS011;68002;52.310;6.990;2023-04-23T08:14:46;13.50;;;8.80;;
78686;SDS011;68002;52.310;6.990;2023-04-23T08:17:12;12.53;;;8.60;;
78686;SDS011;68002;52.310;6.990;2023-04-23T08:19:37;12.60;;;8.97;;
78686;SDS011;68002;52.310;6.990;2023-04-23T08:22:02;14.00;;;8.30;;
78686;SDS011;68002;52.310;6.990;2023-04-23T08:24:27;12.23;;;8.67;;
78686;SDS011;68002;52.310;6.990;2023-04-23T08:26:52;13.23;;;8.63;;
78686;SDS011;68002;52.310;6.990;2023-04-23T08:29:18;13.30;;;8.97;;
78686;SDS011;68002;52.310;6.990;2023-04-23T08:31:43;12.57;;;7.90;;
78686;SDS011;68002;52.310;6.990;2023-04-23T08:34:08;10.37;;;7.60;;
78686;SDS011;68002;52.310;6.990;2023-04-23T08:36:33;11.97;;;8.27;;
78686;SDS011;68002;52.310;6.990;2023-04-23T08:38:58;11.20;;;7.87;;
78686;SDS011;68002;52.310;6.990;2023-04-23T08:41:24;12.13;;;7.77;;
78686;SDS011;68002;52.310;6.990;2023-04-23T08:46:29;10.07;;;6.32;;
78686;SDS011;68002;52.310;6.990;2023-04-23T08:48:55;9.43;;;5.68;;
78686;SDS011;68002;52.310;6.990;2023-04-23T08:51:23;11.70;;;7.80;;
78686;SDS011;68002;52.310;6.990;2023-04-23T08:53:52;9.73;;;8.23;;
78686;SDS011;68002;52.310;6.990;2023-04-23T08:56:22;8.07;;;5.85;;
78686;SDS011;68002;52.310;6.990;2023-04-23T08:58:48;9.13;;;5.93;;
78686;SDS011;68002;52.310;6.990;2023-04-23T09:01:14;8.13;;;5.93;;
78686;SDS011;68002;52.310;6.990;2023-04-23T09:03:41;8.35;;;6.32;;
78686;SDS011;68002;52.310;6.990;2023-04-23T09:06:06;8.45;;;5.35;;
78686;SDS011;68002;52.310;6.990;2023-04-23T09:08:31;7.40;;;5.18;;
78686;SDS011;68002;52.310;6.990;2023-04-23T09:10:58;8.98;;;5.93;;
78686;SDS011;68002;52.310;6.990;2023-04-23T09:13:25;8.13;;;5.80;;
78686;SDS011;68002;52.310;6.990;2023-04-23T09:15:50;8.03;;;5.20;;
78686;SDS011;68002;52.310;6.990;2023-04-23T09:18:16;8.00;;;6.17;;
78686;SDS011;68002;52.310;6.990;2023-04-23T09:20:43;9.63;;;6.25;;
78686;SDS011;68002;52.310;6.990;2023-04-23T09:23:12;8.10;;;5.07;;
78686;SDS011;68002;52.310;6.990;2023-04-23T09:25:39;6.80;;;4.88;;
78686;SDS011;68002;52.310;6.990;2023-04-23T09:28:05;7.75;;;4.88;;
78686;SDS011;68002;52.310;6.990;2023-04-23T09:30:31;6.28;;;3.80;;
78686;SDS011;68002;52.310;6.990;2023-04-23T09:33:03;7.00;;;5.18;;
78686;SDS011;68002;52.310;6.990;2023-04-23T09:35:29;5.47;;;3.88;;
78686;SDS011;68002;52.310;6.990;2023-04-23T09:37:56;7.38;;;3.90;;
78686;SDS011;68002;52.310;6.990;2023-04-23T09:40:22;5.57;;;3.60;;
78686;SDS011;68002;52.310;6.990;2023-04-23T09:42:49;5.32;;;3.70;;
78686;SDS011;68002;52.310;6.990;2023-04-23T09:45:15;7.03;;;3.80;;
78686;SDS011;68002;52.310;6.990;2023-04-23T09:47:46;4.95;;;3.08;;
78686;SDS011;68002;52.310;6.990;2023-04-23T09:50:13;5.53;;;3.53;;
78686;SDS011;68002;52.310;6.990;2023-04-23T09:52:38;7.43;;;3.50;;
78686;SDS011;68002;52.310;6.990;2023-04-23T09:55:04;4.90;;;3.60;;
78686;SDS011;68002;52.310;6.990;2023-04-23T09:57:36;5.38;;;3.70;;
78686;SDS011;68002;52.310;6.990;2023-04-23T10:00:12;6.28;;;3.60;;
78686;SDS011;68002;52.310;6.990;2023-04-23T10:02:46;6.45;;;3.63;;
78686;SDS011;68002;52.310;6.990;2023-04-23T10:05:16;5.60;;;3.60;;
78686;SDS011;68002;52.310;6.990;2023-04-23T10:07:43;4.63;;;3.35;;
78686;SDS011;68002;52.310;6.990;2023-04-23T10:10:09;4.10;;;2.58;;
78686;SDS011;68002;52.310;6.990;2023-04-23T10:12:35;7.07;;;2.78;;
78686;SDS011;68002;52.310;6.990;2023-04-23T10:15:00;4.33;;;2.47;;
78686;SDS011;68002;52.310;6.990;2023-04-23T10:17:28;4.82;;;1.90;;
78686;SDS011;68002;52.310;6.990;2023-04-23T10:19:54;4.63;;;2.83;;
78686;SDS011;68002;52.310;6.990;2023-04-23T10:22:19;5.38;;;2.67;;
78686;SDS011;68002;52.310;6.990;2023-04-23T10:24:45;7.90;;;3.05;;
78686;SDS011;68002;52.310;6.990;2023-04-23T10:27:17;4.28;;;3.00;;
78686;SDS011;68002;52.310;6.990;2023-04-23T10:29:43;5.25;;;2.95;;
78686;SDS011;68002;52.310;6.990;2023-04-23T10:32:08;4.70;;;2.55;;
78686;SDS011;68002;52.310;6.990;2023-04-23T10:34:34;4.35;;;2.53;;
78686;SDS011;68002;52.310;6.990;2023-04-23T10:37:00;4.50;;;2.40;;
78686;SDS011;68002;52.310;6.990;2023-04-23T10:39:27;7.00;;;2.67;;
78686;SDS011;68002;52.310;6.990;2023-04-23T10:41:54;4.15;;;1.80;;
78686;SDS011;68002;52.310;6.990;2023-04-23T10:44:21;5.00;;;2.25;;
78686;SDS011;68002;52.310;6.990;2023-04-23T10:46:51;4.63;;;1.90;;
78686;SDS011;68002;52.310;6.990;2023-04-23T10:49:18;3.47;;;2.03;;
78686;SDS011;68002;52.310;6.990;2023-04-23T10:51:46;3.20;;;1.83;;
78686;SDS011;68002;52.310;6.990;2023-04-23T10:54:14;5.32;;;1.92;;
78686;SDS011;68002;52.310;6.990;2023-04-23T10:56:40;3.95;;;2.50;;
78686;SDS011;68002;52.310;6.990;2023-04-23T10:59:07;3.83;;;1.58;;
78686;SDS011;68002;52.310;6.990;2023-04-23T11:01:42;3.50;;;1.40;;
78686;SDS011;68002;52.310;6.990;2023-04-23T11:04:20;5.88;;;1.88;;
78686;SDS011;68002;52.310;6.990;2023-04-23T11:09:27;4.07;;;1.60;;
78686;SDS011;68002;52.310;6.990;2023-04-23T11:11:55;4.47;;;1.52;;
78686;SDS011;68002;52.310;6.990;2023-04-23T11:14:20;5.23;;;2.10;;
78686;SDS011;68002;52.310;6.990;2023-04-23T11:16:57;6.18;;;2.45;;
78686;SDS011;68002;52.310;6.990;2023-04-23T11:19:23;5.33;;;1.90;;
78686;SDS011;68002;52.310;6.990;2023-04-23T11:22:04;3.60;;;1.47;;
78686;SDS011;68002;52.310;6.990;2023-04-23T11:24:31;4.60;;;1.30;;
78686;SDS011;68002;52.310;6.990;2023-04-23T11:26:59;4.32;;;1.05;;
78686;SDS011;68002;52.310;6.990;2023-04-23T11:29:25;6.07;;;1.40;;
78686;SDS011;68002;52.310;6.990;2023-04-23T11:31:51;3.50;;;1.17;;
78686;SDS011;68002;52.310;6.990;2023-04-23T11:34:18;3.28;;;1.23;;
78686;SDS011;68002;52.310;6.990;2023-04-23T11:36:44;3.95;;;1.48;;
78686;SDS011;68002;52.310;6.990;2023-04-23T11:39:10;3.30;;;1.40;;
78686;SDS011;68002;52.310;6.990;2023-04-23T11:41:35;2.53;;;1.37;;
78686;SDS011;68002;52.310;6.990;2023-04-23T11:44:01;3.23;;;1.03;;
78686;SDS011;68002;52.310;6.990;2023-04-23T11:46:26;3.20;;;1.00;;
78686;SDS011;68002;52.310;6.990;2023-04-23T11:48:51;4.37;;;1.40;;
78686;SDS011;68002;52.310;6.990;2023-04-23T11:51:16;4.57;;;1.50;;
78686;SDS011;68002;52.310;6.990;2023-04-23T11:53:48;3.37;;;1.00;;
78686;SDS011;68002;52.310;6.990;2023-04-23T11:56:16;2.72;;;1.05;;
78686;SDS011;68002;52.310;6.990;2023-04-23T11:58:41;5.10;;;1.25;;
78686;SDS011;68002;52.310;6.990;2023-04-23T12:01:07;5.57;;;1.43;;
78686;SDS011;68002;52.310;6.990;2023-04-23T12:03:34;3.30;;;1.38;;
78686;SDS011;68002;52.310;6.990;2023-04-23T12:05:59;2.80;;;1.03;;
78686;SDS011;68002;52.310;6.990;2023-04-23T12:08:24;5.63;;;1.50;;
78686;SDS011;68002;52.310;6.990;2023-04-23T12:11:03;3.42;;;1.05;;
78686;SDS011;68002;52.310;6.990;2023-04-23T12:13:29;4.70;;;1.05;;
78686;SDS011;68002;52.310;6.990;2023-04-23T12:15:56;3.03;;;0.70;;
78686;SDS011;68002;52.310;6.990;2023-04-23T12:18:26;3.70;;;0.93;;
78686;SDS011;68002;52.310;6.990;2023-04-23T12:21:07;3.03;;;0.80;;
78686;SDS011;68002;52.310;6.990;2023-04-23T12:23:39;2.17;;;0.88;;
78686;SDS011;68002;52.310;6.990;2023-04-23T12:26:13;3.90;;;0.90;;
78686;SDS011;68002;52.310;6.990;2023-04-23T12:28:49;3.28;;;0.85;;
78686;SDS011;68002;52.310;6.990;2023-04-23T12:31:18;3.85;;;1.02;;
78686;SDS011;68002;52.310;6.990;2023-04-23T12:36:10;3.13;;;0.80;;
78686;SDS011;68002;52.310;6.990;2023-04-23T12:38:35;3.15;;;1.05;;
78686;SDS011;68002;52.310;6.990;2023-04-23T12:41:00;3.20;;;1.10;;
78686;SDS011;68002;52.310;6.990;2023-04-23T12:43:26;3.87;;;1.00;;
78686;SDS011;68002;52.310;6.990;2023-04-23T12:45:51;4.25;;;0.85;;
78686;SDS011;68002;52.310;6.990;2023-04-23T12:48:18;2.58;;;0.80;;
78686;SDS011;68002;52.310;6.990;2023-04-23T12:50:44;2.40;;;0.93;;
78686;SDS011;68002;52.310;6.990;2023-04-23T12:53:10;3.67;;;1.00;;
78686;SDS011;68002;52.310;6.990;2023-04-23T12:55:35;2.20;;;0.80;;
78686;SDS011;68002;52.310;6.990;2023-04-23T12:58:00;2.63;;;0.90;;
78686;SDS011;68002;52.310;6.990;2023-04-23T13:00:25;4.40;;;1.20;;
78686;SDS011;68002;52.310;6.990;2023-04-23T13:02:51;2.80;;;0.73;;
78686;SDS011;68002;52.310;6.990;2023-04-23T13:05:16;3.92;;;0.93;;
78686;SDS011;68002;52.310;6.990;2023-04-23T13:07:42;2.42;;;0.98;;
78686;SDS011;68002;52.310;6.990;2023-04-23T13:10:07;3.27;;;1.03;;
78686;SDS011;68002;52.310;6.990;2023-04-23T13:12:33;3.72;;;0.75;;
78686;SDS011;68002;52.310;6.990;2023-04-23T13:14:58;3.23;;;0.90;;
78686;SDS011;68002;52.310;6.990;2023-04-23T13:17:23;3.70;;;1.30;;
78686;SDS011;68002;52.310;6.990;2023-04-23T13:19:49;4.53;;;1.00;;
78686;SDS011;68002;52.310;6.990;2023-04-23T13:22:14;2.63;;;1.07;;
78686;SDS011;68002;52.310;6.990;2023-04-23T13:24:39;2.17;;;1.10;;
78686;SDS011;68002;52.310;6.990;2023-04-23T13:27:05;2.23;;;0.53;;
78686;SDS011;68002;52.310;6.990;2023-04-23T13:29:30;2.00;;;1.27;;
78686;SDS011;68002;52.310;6.990;2023-04-23T13:31:55;3.03;;;1.10;;
78686;SDS011;68002;52.310;6.990;2023-04-23T13:34:21;3.30;;;1.70;;
78686;SDS011;68002;52.310;6.990;2023-04-23T13:36:46;2.78;;;1.40;;
78686;SDS011;68002;52.310;6.990;2023-04-23T13:39:12;4.15;;;1.10;;
78686;SDS011;68002;52.310;6.990;2023-04-23T13:41:37;3.07;;;1.00;;
78686;SDS011;68002;52.310;6.990;2023-04-23T13:44:02;2.80;;;1.00;;
78686;SDS011;68002;52.310;6.990;2023-04-23T13:46:27;4.30;;;1.30;;
78686;SDS011;68002;52.310;6.990;2023-04-23T13:48:53;3.20;;;1.07;;
78686;SDS011;68002;52.310;6.990;2023-04-23T13:51:18;2.73;;;1.20;;
78686;SDS011;68002;52.310;6.990;2023-04-23T13:53:43;2.53;;;0.73;;
78686;SDS011;68002;52.310;6.990;2023-04-23T13:56:08;4.53;;;1.00;;
78686;SDS011;68002;52.310;6.990;2023-04-23T13:58:34;2.97;;;0.83;;
78686;SDS011;68002;52.310;6.990;2023-04-23T14:00:59;4.30;;;1.20;;
78686;SDS011;68002;52.310;6.990;2023-04-23T14:03:24;2.03;;;0.70;;
78686;SDS011;68002;52.310;6.990;2023-04-23T14:05:50;2.40;;;0.87;;
78686;SDS011;68002;52.310;6.990;2023-04-23T14:08:15;3.30;;;0.50;;
78686;SDS011;68002;52.310;6.990;2023-04-23T14:10:40;3.50;;;0.60;;
78686;SDS011;68002;52.310;6.990;2023-04-23T14:13:05;3.47;;;0.73;;
78686;SDS011;68002;52.310;6.990;2023-04-23T14:15:31;3.73;;;0.80;;
78686;SDS011;68002;52.310;6.990;2023-04-23T14:17:56;3.07;;;1.10;;
78686;SDS011;68002;52.310;6.990;2023-04-23T14:20:21;2.13;;;1.17;;
78686;SDS011;68002;52.310;6.990;2023-04-23T14:22:50;1.95;;;0.68;;
78686;SDS011;68002;52.310;6.990;2023-04-23T14:25:24;3.85;;;1.15;;
78686;SDS011;68002;52.310;6.990;2023-04-23T14:28:01;2.28;;;0.68;;
78686;SDS011;68002;52.310;6.990;2023-04-23T14:30:33;4.50;;;1.13;;
78686;SDS011;68002;52.310;6.990;2023-04-23T14:32:58;2.72;;;0.82;;